Time;durP1;ratioP1;P1;durP2;ratioP2;P2;SDS_P1;SDS_P2;PMS_P1;PMS_P2;Temp;Humidity;BMP_temperature;BMP_pressure;BME280_temperature;BME280_humidity;BME280_pressure;Samples;Min_cycle;Max_cycle;Signal;HPM_P1;HPM_P2
2022/05/01 00:01:27;;;;;;;16.40;10.15;;;5.30;99.90;;;;;;5087493;28;20040;-85
2022/05/01 00:03:53;;;;;;;15.63;9.52;;;5.50;99.90;;;;;;5098471;28;20028;-85
2022/05/01 00:06:19;;;;;;;18.08;10.57;;;5.30;99.90;;;;;;5090323;28;20251;-83
2022/05/01 00:08:45;;;;;;;18.98;10.95;;;6.10;99.90;;;;;;5085577;28;20044;-85
2022/05/01 00:11:13;;;;;;;18.40;11.10;;;5.10;99.90;;;;;;5122014;22;20517;-85
2022/05/01 00:13:43;;;;;;;21.00;11.73;;;5.80;99.90;;;;;;5109090;22;20097;-84
2022/05/01 00:16:09;;;;;;;17.63;11.05;;;5.20;99.90;;;;;;5092832;22;20535;-83
2022/05/01 00:18:35;;;;;;;17.67;10.85;;;5.70;99.90;;;;;;5068645;28;20048;-85
2022/05/01 00:21:01;;;;;;;18.88;11.65;;;4.80;99.90;;;;;;5090741;22;20050;-83
2022/05/01 00:23:27;;;;;;;19.90;12.40;;;4.80;99.90;;;;;;5089468;28;20047;-83
2022/05/01 00:25:53;;;;;;;20.88;12.13;;;5.40;99.90;;;;;;5089293;28;20050;-84
2022/05/01 00:28:19;;;;;;;21.80;12.18;;;5.60;99.90;;;;;;5096094;22;20120;-85
2022/05/01 00:30:44;;;;;;;18.65;11.63;;;4.70;99.90;;;;;;5099742;22;20048;-84
2022/05/01 00:38:39;;;;;;;20.58;12.18;;;4.40;99.90;;;;;;5084101;28;20079;-83
2022/05/01 00:41:11;;;;;;;22.65;12.77;;;4.40;99.90;;;;;;5067055;28;20068;-83
2022/05/01 00:44:22;;;;;;;22.33;12.25;;;4.40;99.90;;;;;;5076015;22;20090;-83
2022/05/01 00:46:50;;;;;;;22.63;12.82;;;4.40;99.90;;;;;;5068521;28;20048;-83
2022/05/01 00:49:24;;;;;;;23.00;12.82;;;4.90;99.90;;;;;;5088363;28;20092;-83
2022/05/01 00:51:58;;;;;;;21.58;12.60;;;4.40;99.90;;;;;;5070030;28;20048;-84
2022/05/01 00:54:26;;;;;;;20.45;12.45;;;5.20;99.90;;;;;;5069986;28;20543;-83
2022/05/01 00:56:54;;;;;;;19.40;12.07;;;4.50;99.90;;;;;;5070210;28;20046;-85
2022/05/01 00:59:20;;;;;;;20.02;13.02;;;4.50;99.90;;;;;;5068900;28;20074;-86
2022/05/01 01:01:50;;;;;;;20.15;12.45;;;5.30;99.90;;;;;;5063728;28;20044;-86
2022/05/01 01:04:16;;;;;;;22.75;13.48;;;4.60;99.90;;;;;;5063709;28;20105;-85
2022/05/01 01:06:43;;;;;;;23.15;12.32;;;5.30;99.90;;;;;;5063979;28;20475;-85
2022/05/01 01:09:09;;;;;;;22.55;13.30;;;4.40;99.90;;;;;;5079628;22;20051;-86
2022/05/01 01:11:37;;;;;;;22.17;13.32;;;4.40;99.90;;;;;;5043764;28;20391;-85
2022/05/01 01:14:05;;;;;;;23.00;13.38;;;4.50;99.90;;;;;;5067408;22;20415;-84
2022/05/01 01:16:32;;;;;;;22.13;12.73;;;4.30;99.90;;;;;;5043833;28;20053;-85
2022/05/01 01:18:58;;;;;;;19.88;12.57;;;4.30;99.90;;;;;;5027145;28;20040;-85
2022/05/01 01:21:24;;;;;;;21.40;13.18;;;4.30;99.90;;;;;;5060137;28;20059;-85
2022/05/01 01:23:52;;;;;;;23.05;13.77;;;4.30;99.90;;;;;;5043890;28;20083;-86
2022/05/01 01:26:19;;;;;;;22.58;13.35;;;4.30;99.90;;;;;;5060503;28;20059;-85
2022/05/01 01:28:46;;;;;;;24.60;13.30;;;5.00;99.90;;;;;;5060354;28;20040;-86
2022/05/01 01:34:05;;;;;;;22.83;13.43;;;4.30;99.90;;;;;;5045758;28;20053;-85
2022/05/01 01:36:32;;;;;;;22.17;12.80;;;4.10;99.90;;;;;;5060136;28;20049;-86
2022/05/01 01:38:59;;;;;;;23.27;13.77;;;4.90;99.90;;;;;;5042920;28;20052;-85
2022/05/01 01:41:28;;;;;;;22.83;13.35;;;4.10;99.90;;;;;;5060243;28;20037;-85
2022/05/01 01:43:55;;;;;;;21.30;13.30;;;4.40;99.90;;;;;;5059629;28;20127;-85
2022/05/01 01:46:21;;;;;;;22.73;13.70;;;4.60;99.90;;;;;;5042959;28;20063;-86
2022/05/01 01:48:48;;;;;;;22.30;12.48;;;4.00;99.90;;;;;;5042385;28;20067;-85
2022/05/01 01:51:14;;;;;;;22.42;12.68;;;4.00;99.90;;;;;;5042414;28;20079;-85
2022/05/01 01:53:40;;;;;;;23.02;13.48;;;4.50;99.90;;;;;;5059191;28;20468;-85
2022/05/01 01:56:10;;;;;;;24.15;13.40;;;4.70;99.90;;;;;;5059298;28;20391;-85
2022/05/01 01:58:38;;;;;;;22.25;13.77;;;4.40;99.90;;;;;;5030325;28;20040;-86
2022/05/01 02:01:06;;;;;;;22.95;13.52;;;3.90;99.90;;;;;;5080691;28;20044;-85
2022/05/01 02:03:33;;;;;;;22.38;13.10;;;3.90;99.90;;;;;;5062650;28;20048;-83
2022/05/01 02:05:59;;;;;;;23.52;13.57;;;4.00;99.90;;;;;;5080379;28;20040;-84
2022/05/01 02:08:25;;;;;;;22.25;12.82;;;4.10;99.90;;;;;;5046048;28;20420;-83
2022/05/01 02:10:51;;;;;;;20.67;13.30;;;3.80;99.90;;;;;;5047144;28;20044;-84
2022/05/01 02:13:17;;;;;;;25.42;13.77;;;3.70;99.90;;;;;;5062500;28;20082;-83
2022/05/01 02:15:44;;;;;;;22.63;13.25;;;3.70;99.90;;;;;;5062943;28;20495;-83
2022/05/01 02:18:10;;;;;;;21.95;12.85;;;3.70;99.90;;;;;;5046559;28;20044;-83
2022/05/01 02:23:24;;;;;;;20.60;13.13;;;3.60;99.90;;;;;;5004449;28;20105;-84
2022/05/01 02:25:50;;;;;;;24.27;14.13;;;3.60;99.90;;;;;;5004516;28;20569;-85
2022/05/01 02:28:16;;;;;;;21.92;13.90;;;3.60;99.90;;;;;;5004786;28;20074;-85
2022/05/01 02:30:43;;;;;;;23.55;13.98;;;3.60;99.90;;;;;;5018608;28;20494;-83
2022/05/01 02:33:09;;;;;;;21.67;13.75;;;3.60;99.90;;;;;;4985692;28;20432;-84
2022/05/01 02:35:35;;;;;;;22.63;13.75;;;3.60;99.90;;;;;;5001880;28;20149;-85
2022/05/01 02:38:02;;;;;;;23.95;13.88;;;3.50;99.90;;;;;;4986481;28;20496;-84
2022/05/01 02:40:29;;;;;;;24.27;14.32;;;3.60;99.90;;;;;;5003502;28;20552;-84
2022/05/01 02:42:57;;;;;;;21.70;14.25;;;3.50;99.90;;;;;;5004749;28;20050;-85
2022/05/01 02:45:23;;;;;;;23.20;12.93;;;4.50;99.90;;;;;;5020718;28;20461;-83
2022/05/01 02:47:49;;;;;;;22.17;13.30;;;3.40;99.90;;;;;;5002498;28;20097;-83
2022/05/01 02:50:14;;;;;;;25.30;14.63;;;3.40;99.90;;;;;;5001359;28;20556;-84
2022/05/01 02:52:40;;;;;;;23.30;13.93;;;4.20;99.90;;;;;;5001107;28;20046;-86
2022/05/01 02:55:06;;;;;;;22.00;14.35;;;3.40;99.90;;;;;;5000542;28;20089;-83
2022/05/01 02:57:33;;;;;;;22.77;13.45;;;3.40;99.90;;;;;;5017765;28;20096;-84
2022/05/01 02:59:59;;;;;;;21.42;13.40;;;3.30;99.90;;;;;;5022698;28;20052;-83
2022/05/01 03:02:24;;;;;;;26.23;14.38;;;3.30;99.90;;;;;;5048898;28;20090;-83
2022/05/01 03:04:51;;;;;;;23.27;13.77;;;3.70;99.90;;;;;;5081001;28;20044;-83
2022/05/01 03:07:17;;;;;;;23.08;14.40;;;3.20;99.90;;;;;;5064516;28;20580;-85
2022/05/01 03:09:42;;;;;;;22.15;13.40;;;3.50;99.90;;;;;;5082699;28;20076;-84
2022/05/01 03:12:08;;;;;;;24.80;14.50;;;3.10;99.90;;;;;;5082629;28;20048;-85
2022/05/01 03:14:34;;;;;;;22.52;14.07;;;3.10;99.90;;;;;;5048213;28;20044;-84
2022/05/01 03:17:00;;;;;;;23.08;14.13;;;3.10;99.90;;;;;;5063236;28;20057;-84
2022/05/01 03:22:15;;;;;;;23.95;14.38;;;4.00;99.90;;;;;;5063786;28;20052;-83
2022/05/01 03:24:42;;;;;;;22.75;14.48;;;3.10;99.90;;;;;;5086220;28;20483;-84
2022/05/01 03:27:09;;;;;;;26.35;14.18;;;3.60;99.90;;;;;;5076303;28;20103;-83
2022/05/01 03:29:37;;;;;;;23.42;14.35;;;3.10;99.90;;;;;;5051768;28;20045;-83
2022/05/01 03:32:07;;;;;;;24.45;14.35;;;3.10;99.90;;;;;;5047842;28;20048;-84
2022/05/01 03:34:33;;;;;;;24.58;14.80;;;3.10;99.90;;;;;;5066310;28;20079;-83
2022/05/01 03:36:58;;;;;;;26.70;14.88;;;3.00;99.90;;;;;;5083144;28;20036;-82
2022/05/01 03:39:24;;;;;;;25.05;14.65;;;3.00;99.90;;;;;;5084470;28;20055;-84
2022/05/01 03:41:50;;;;;;;27.67;14.40;;;3.00;99.90;;;;;;5083689;28;20044;-82
2022/05/01 03:44:15;;;;;;;23.52;13.93;;;3.00;99.90;;;;;;5083043;28;20043;-83
2022/05/01 03:46:41;;;;;;;23.65;14.27;;;3.50;99.90;;;;;;5066201;28;20060;-85
2022/05/01 03:49:07;;;;;;;24.20;14.57;;;2.90;99.90;;;;;;5065665;28;20079;-83
2022/05/01 03:51:33;;;;;;;22.85;14.20;;;2.80;99.90;;;;;;5049733;28;20048;-83
2022/05/01 03:54:02;;;;;;;22.25;13.68;;;2.80;99.90;;;;;;5082612;28;20040;-83
2022/05/01 03:56:28;;;;;;;23.15;14.27;;;2.80;99.90;;;;;;5082909;28;20068;-84
2022/05/01 03:58:54;;;;;;;24.58;14.00;;;3.30;99.90;;;;;;5082627;28;20036;-82
2022/05/01 04:01:20;;;;;;;22.98;14.02;;;3.00;99.90;;;;;;5082333;28;20063;-82
2022/05/01 04:03:46;;;;;;;24.08;13.88;;;2.70;99.90;;;;;;5048358;28;20095;-83
2022/05/01 04:06:11;;;;;;;24.63;14.50;;;2.80;99.90;;;;;;5064892;28;20051;-82
2022/05/01 04:08:37;;;;;;;24.30;14.05;;;2.70;99.90;;;;;;5063787;28;20045;-82
2022/05/01 04:11:03;;;;;;;23.73;14.45;;;2.80;99.90;;;;;;5080819;28;20040;-82
2022/05/01 04:13:29;;;;;;;25.02;15.20;;;2.80;99.90;;;;;;5064597;28;20395;-83
2022/05/01 04:15:55;;;;;;;22.23;13.77;;;2.80;99.90;;;;;;5064319;28;20044;-82
2022/05/01 04:18:37;;;;;;;23.55;14.30;;;2.80;99.90;;;;;;5082338;28;20041;-83
2022/05/01 04:21:02;;;;;;;24.23;14.23;;;2.80;99.90;;;;;;5066387;28;20076;-83
2022/05/01 04:23:28;;;;;;;24.40;14.65;;;2.70;99.90;;;;;;5083454;28;20047;-83
2022/05/01 04:25:54;;;;;;;25.63;14.25;;;3.20;99.90;;;;;;5066541;28;20103;-83
2022/05/01 04:28:20;;;;;;;24.92;14.00;;;2.60;99.90;;;;;;5062896;28;20067;-83
2022/05/01 04:30:50;;;;;;;23.95;14.23;;;1.90;99.90;;;;;;5046881;28;20419;-84
2022/05/01 04:33:16;;;;;;;25.80;15.25;;;3.30;99.90;;;;;;5046414;28;20051;-83
2022/05/01 04:35:48;;;;;;;25.15;15.15;;;2.50;99.90;;;;;;5081267;28;20066;-84
2022/05/01 04:38:16;;;;;;;28.50;15.80;;;3.00;99.90;;;;;;5081094;28;20104;-83
2022/05/01 04:40:45;;;;;;;27.05;15.82;;;2.50;99.90;;;;;;5047599;28;20037;-83
2022/05/01 04:43:22;;;;;;;24.45;15.10;;;2.50;99.90;;;;;;5081033;28;20040;-83
2022/05/01 04:45:50;;;;;;;27.35;15.57;;;2.40;99.90;;;;;;5046452;28;20055;-84
2022/05/01 04:48:17;;;;;;;25.70;15.65;;;2.40;99.90;;;;;;5045805;28;20482;-83
2022/05/01 04:50:45;;;;;;;24.75;14.93;;;2.40;99.90;;;;;;5080789;28;20040;-83
2022/05/01 04:53:12;;;;;;;26.77;15.93;;;2.40;99.90;;;;;;5045099;28;20052;-83
2022/05/01 04:55:44;;;;;;;25.08;14.38;;;2.40;99.90;;;;;;5061945;28;20040;-84
2022/05/01 04:58:10;;;;;;;25.38;14.60;;;2.40;99.90;;;;;;5080016;28;20495;-83
2022/05/01 05:00:36;;;;;;;25.02;14.35;;;2.50;99.90;;;;;;5080720;28;20041;-84
2022/05/01 05:03:03;;;;;;;31.33;16.20;;;2.50;99.90;;;;;;5064399;28;20045;-84
2022/05/01 05:05:31;;;;;;;26.40;15.52;;;2.70;99.90;;;;;;5063896;28;20048;-83
2022/05/01 05:09:53;;;;;;;27.75;16.23;;;3.10;99.90;;;;;;5044465;28;20044;-84
2022/05/01 05:10:47;;;;;;;24.75;15.40;;;3.40;99.90;;;;;;5061803;28;20044;-83
2022/05/01 05:13:22;;;;;;;27.30;16.25;;;2.90;99.90;;;;;;5056061;28;20048;-84
2022/05/01 05:15:53;;;;;;;23.52;14.85;;;3.10;99.90;;;;;;5074161;28;20531;-83
2022/05/01 05:18:19;;;;;;;25.65;14.93;;;3.20;99.90;;;;;;5069369;28;20076;-84
2022/05/01 05:20:45;;;;;;;27.08;15.48;;;3.20;99.90;;;;;;5067215;28;20040;-83
2022/05/01 05:23:10;;;;;;;24.50;15.43;;;3.30;99.90;;;;;;5065724;28;20484;-83
2022/05/01 05:25:36;;;;;;;23.73;14.45;;;3.40;99.90;;;;;;5082323;28;20045;-83
2022/05/01 05:28:02;;;;;;;22.65;14.65;;;3.90;99.90;;;;;;5082109;28;20088;-83
2022/05/01 05:30:28;;;;;;;22.08;14.05;;;3.60;99.90;;;;;;5066211;28;20040;-83
2022/05/01 05:32:58;;;;;;;20.92;13.75;;;4.00;99.90;;;;;;5049777;28;20113;-83
2022/05/01 05:35:24;;;;;;;24.17;15.13;;;3.80;99.90;;;;;;5066170;28;20476;-83
2022/05/01 05:37:50;;;;;;;20.90;13.25;;;3.80;99.90;;;;;;5048334;28;20144;-85
2022/05/01 05:40:15;;;;;;;22.85;14.18;;;4.00;99.90;;;;;;5064040;28;20097;-83
2022/05/01 05:42:41;;;;;;;21.73;13.88;;;4.10;99.90;;;;;;5082487;28;20043;-83
2022/05/01 05:45:07;;;;;;;24.25;13.73;;;4.20;99.90;;;;;;5047973;28;20503;-83
2022/05/01 05:47:34;;;;;;;22.27;14.10;;;4.40;99.90;;;;;;5046788;28;20049;-84
2022/05/01 05:49:59;;;;;;;24.10;14.93;;;4.50;99.90;;;;;;5081377;28;20098;-83
2022/05/01 05:52:25;;;;;;;23.42;15.07;;;4.60;99.90;;;;;;5063058;28;20044;-84
2022/05/01 05:54:51;;;;;;;23.80;14.57;;;4.70;99.90;;;;;;5064229;28;20056;-83
2022/05/01 05:57:16;;;;;;;23.20;14.80;;;5.10;99.90;;;;;;5080344;28;20036;-84
2022/05/01 05:59:42;;;;;;;22.65;14.23;;;4.90;99.90;;;;;;5047308;28;20052;-84
2022/05/01 06:02:09;;;;;;;26.10;14.98;;;5.10;99.90;;;;;;5081463;28;20060;-83
2022/05/01 06:04:34;;;;;;;24.60;15.57;;;5.80;99.90;;;;;;5062381;28;20040;-83
2022/05/01 06:07:00;;;;;;;21.83;13.93;;;5.30;99.90;;;;;;5064810;28;20052;-83
2022/05/01 06:09:26;;;;;;;21.33;13.45;;;5.60;99.90;;;;;;5049545;28;20055;-83
2022/05/01 06:11:51;;;;;;;21.63;13.75;;;5.70;99.90;;;;;;5083538;28;20052;-83
2022/05/01 06:14:17;;;;;;;19.95;13.90;;;5.80;99.90;;;;;;5051045;28;20053;-84
2022/05/01 06:16:42;;;;;;;19.63;13.20;;;6.00;99.90;;;;;;5065566;28;20045;-83
2022/05/01 06:19:08;;;;;;;19.50;11.48;;;6.20;99.90;;;;;;5082506;28;20475;-84
2022/05/01 06:21:34;;;;;;;16.40;10.23;;;6.60;99.90;;;;;;5083373;28;20503;-84
2022/05/01 06:23:59;;;;;;;18.67;11.20;;;7.00;99.90;;;;;;5063245;28;20491;-84
2022/05/01 06:26:25;;;;;;;17.08;10.57;;;7.40;99.90;;;;;;5071430;28;20075;-84
2022/05/01 06:28:51;;;;;;;16.20;10.05;;;6.80;99.90;;;;;;5061005;28;20049;-85
2022/05/01 06:31:17;;;;;;;16.85;9.70;;;7.70;99.90;;;;;;5079296;28;20062;-86
2022/05/01 06:33:45;;;;;;;14.60;9.27;;;7.00;99.90;;;;;;5078093;28;20032;-84
2022/05/01 06:36:13;;;;;;;14.02;9.30;;;7.20;99.90;;;;;;5043397;28;20052;-86
2022/05/01 06:38:39;;;;;;;14.15;9.30;;;8.10;99.90;;;;;;5044340;28;20040;-84
2022/05/01 06:41:05;;;;;;;12.05;8.13;;;8.40;99.90;;;;;;5052031;28;20037;-85
2022/05/01 06:43:31;;;;;;;14.13;8.60;;;8.40;99.90;;;;;;5071011;28;20040;-86
2022/05/01 06:45:57;;;;;;;12.32;8.25;;;8.10;99.90;;;;;;5074732;28;20053;-86
2022/05/01 06:48:23;;;;;;;11.13;7.85;;;8.20;99.90;;;;;;5056891;28;20040;-86
2022/05/01 06:50:49;;;;;;;13.93;8.52;;;8.50;99.90;;;;;;5092814;28;20051;-86
2022/05/01 06:53:15;;;;;;;12.55;7.80;;;8.10;99.90;;;;;;5043189;28;20051;-85
2022/05/01 06:55:42;;;;;;;11.18;7.80;;;9.00;99.90;;;;;;5076958;28;20040;-86
2022/05/01 06:58:08;;;;;;;12.68;7.65;;;8.70;99.90;;;;;;5058727;28;20033;-86
2022/05/01 07:00:33;;;;;;;11.13;6.60;;;8.00;99.90;;;;;;5042311;28;20108;-84
2022/05/01 07:02:59;;;;;;;10.50;5.82;;;8.70;99.90;;;;;;5043009;28;20087;-86
2022/05/01 07:05:25;;;;;;;11.07;6.47;;;9.60;99.90;;;;;;5059687;28;20044;-85
2022/05/01 07:07:52;;;;;;;11.20;6.38;;;8.90;99.90;;;;;;5042536;28;20047;-84
2022/05/01 07:10:19;;;;;;;6.50;4.63;;;9.60;99.90;;;;;;5059107;28;20052;-85
2022/05/01 07:12:45;;;;;;;7.68;4.80;;;9.40;99.90;;;;;;5059591;28;20549;-84
2022/05/01 07:15:11;;;;;;;6.90;4.78;;;9.60;99.90;;;;;;5042072;28;20097;-86
2022/05/01 07:17:37;;;;;;;9.43;5.65;;;9.50;99.90;;;;;;5043205;28;20045;-86
2022/05/01 07:20:03;;;;;;;7.95;5.18;;;9.50;99.90;;;;;;5078612;28;20040;-84
2022/05/01 07:22:29;;;;;;;7.90;5.10;;;9.60;99.90;;;;;;5060061;28;20041;-84
2022/05/01 07:24:56;;;;;;;9.18;5.18;;;9.60;99.90;;;;;;5059687;28;20133;-85
2022/05/01 07:27:21;;;;;;;7.90;4.85;;;9.70;99.90;;;;;;5043369;28;20053;-84
2022/05/01 07:29:47;;;;;;;8.68;5.10;;;9.70;99.90;;;;;;5058694;28;20060;-84
2022/05/01 07:32:13;;;;;;;11.55;5.20;;;10.50;99.90;;;;;;5076201;28;20045;-86
2022/05/01 07:34:39;;;;;;;6.40;4.50;;;9.90;99.90;;;;;;5058135;28;20041;-84
2022/05/01 07:37:04;;;;;;;8.68;4.82;;;10.00;99.90;;;;;;5041883;28;20103;-86
2022/05/01 07:39:31;;;;;;;6.32;4.72;;;10.10;99.90;;;;;;5058600;28;20040;-84
2022/05/01 07:41:56;;;;;;;7.80;4.65;;;10.50;99.90;;;;;;5057998;28;20045;-86
2022/05/01 07:44:22;;;;;;;8.20;4.82;;;11.20;99.90;;;;;;5059069;28;20048;-84
2022/05/01 07:46:48;;;;;;;6.22;4.40;;;10.40;99.90;;;;;;5060229;28;20040;-84
2022/05/01 07:49:13;;;;;;;7.25;4.68;;;10.70;99.90;;;;;;5041869;28;20063;-85
2022/05/01 07:51:40;;;;;;;7.65;4.82;;;10.60;99.90;;;;;;5057850;28;20052;-86
2022/05/01 07:54:06;;;;;;;8.55;4.70;;;10.70;99.90;;;;;;5057727;28;20048;-85
2022/05/01 07:56:33;;;;;;;5.82;4.40;;;10.80;99.90;;;;;;5059799;28;20076;-84
2022/05/01 07:59:00;;;;;;;6.90;4.20;;;10.90;99.90;;;;;;5059464;28;20041;-85
2022/05/01 08:01:26;;;;;;;5.65;4.13;;;11.30;99.90;;;;;;5060689;28;20059;-85
2022/05/01 08:06:36;;;;;;;6.18;3.92;;;11.50;99.90;;;;;;5058125;28;20049;-85
2022/05/01 08:09:03;;;;;;;6.88;4.07;;;11.80;99.90;;;;;;5041517;28;20131;-84
2022/05/01 08:11:29;;;;;;;8.52;4.72;;;12.00;99.90;;;;;;5041855;28;20049;-87
2022/05/01 08:13:55;;;;;;;6.43;3.95;;;12.00;99.90;;;;;;5059206;28;20381;-84
2022/05/01 08:16:21;;;;;;;5.55;4.00;;;12.10;99.90;;;;;;5042871;28;20044;-83
2022/05/01 08:21:32;;;;;;;6.15;4.03;;;12.20;99.90;;;;;;5067814;22;20044;-83
2022/05/01 08:23:59;;;;;;;6.75;4.00;;;12.20;99.90;;;;;;5066631;22;20068;-83
2022/05/01 08:26:25;;;;;;;7.75;4.32;;;12.30;99.90;;;;;;5064849;23;20491;-83
2022/05/01 08:28:52;;;;;;;7.72;4.28;;;12.30;99.90;;;;;;5067281;22;20075;-83
2022/05/01 08:31:18;;;;;;;8.32;4.20;;;12.20;99.90;;;;;;5064623;22;20185;-83
2022/05/01 08:33:44;;;;;;;7.32;4.07;;;12.10;99.90;;;;;;5083596;22;20119;-84
2022/05/01 08:36:10;;;;;;;7.25;3.55;;;11.90;99.90;;;;;;5085768;28;20122;-83
2022/05/01 08:38:37;;;;;;;5.95;3.85;;;12.30;99.90;;;;;;5078665;22;20441;-86
2022/05/01 08:41:04;;;;;;;8.32;3.70;;;11.70;99.90;;;;;;5056366;22;20049;-83
2022/05/01 08:43:31;;;;;;;6.65;4.15;;;11.80;99.90;;;;;;5068601;22;20048;-83
2022/05/01 08:46:19;;;;;;;6.90;3.75;;;11.90;99.90;;;;;;5095128;22;20390;-86
2022/05/01 08:49:03;;;;;;;8.25;4.18;;;12.00;99.90;;;;;;5078485;28;20040;-83
2022/05/01 08:51:35;;;;;;;7.45;3.80;;;12.10;99.90;;;;;;5103653;22;20113;-83
2022/05/01 08:54:11;;;;;;;5.70;3.88;;;12.10;99.90;;;;;;5095595;22;20059;-84
2022/05/01 08:56:37;;;;;;;;;;;12.10;99.90;;;;;;5066504;22;20041;-83
2022/05/01 08:59:07;;;;;;;7.68;4.20;;;11.90;99.90;;;;;;5071996;22;20432;-83
2022/05/01 09:01:34;;;;;;;6.18;4.25;;;11.90;99.90;;;;;;5104605;22;20040;-83
2022/05/01 09:04:00;;;;;;;6.85;4.25;;;11.90;99.90;;;;;;5082454;22;20139;-84
2022/05/01 09:06:27;;;;;;;6.15;4.10;;;11.90;99.90;;;;;;5072070;22;20045;-83
2022/05/01 09:08:52;;;;;;;7.63;4.30;;;11.90;99.90;;;;;;5078573;22;20044;-83
2022/05/01 09:14:04;;;;;;;6.90;4.30;;;12.30;99.90;;;;;;5109507;22;20108;-84
2022/05/01 09:16:31;;;;;;;6.47;4.10;;;12.10;99.90;;;;;;5097806;22;20059;-86
2022/05/01 09:18:57;;;;;;;5.53;3.70;;;12.20;99.90;;;;;;5056958;22;20045;-83
2022/05/01 09:21:22;;;;;;;8.75;4.30;;;12.50;99.90;;;;;;5083355;22;20071;-86
2022/05/01 09:23:48;;;;;;;8.32;4.28;;;12.60;99.90;;;;;;5083898;22;20049;-83
2022/05/01 09:26:17;;;;;;;7.05;4.40;;;12.70;99.90;;;;;;5065827;22;20417;-84
2022/05/01 09:28:54;;;;;;;8.85;4.57;;;12.80;99.90;;;;;;5086307;22;20048;-84
2022/05/01 09:31:43;;;;;;;6.30;4.00;;;12.90;99.90;;;;;;5095502;22;20118;-83
2022/05/01 09:34:23;;;;;;;6.65;4.00;;;12.60;99.90;;;;;;5053696;23;20044;-85
2022/05/01 09:36:50;;;;;;;7.22;4.00;;;12.80;99.90;;;;;;5092592;22;20048;-83
2022/05/01 09:39:29;;;;;;;8.52;3.85;;;12.70;99.90;;;;;;5114979;22;20061;-83
2022/05/01 09:42:12;;;;;;;5.18;3.60;;;13.60;99.90;;;;;;5067889;28;20055;-86
2022/05/01 09:44:39;;;;;;;6.20;3.55;;;13.20;99.90;;;;;;5075292;22;20048;-83
2022/05/01 09:47:07;;;;;;;7.20;3.90;;;13.40;99.90;;;;;;5083166;28;20456;-84
2022/05/01 09:49:48;;;;;;;5.82;3.97;;;13.30;99.90;;;;;;5092627;22;20443;-85
2022/05/01 09:52:15;;;;;;;8.45;4.75;;;13.50;99.90;;;;;;5081263;22;20054;-83
2022/05/01 09:55:00;;;;;;;7.22;3.92;;;13.60;99.90;;;;;;5023198;28;20057;-84
2022/05/01 09:57:25;;;;;;;7.18;4.03;;;14.00;99.90;;;;;;5023446;28;20045;-83
2022/05/01 09:59:51;;;;;;;6.18;3.70;;;14.20;99.90;;;;;;5023459;28;20081;-83
2022/05/01 10:02:28;;;;;;;5.38;3.80;;;15.40;99.90;;;;;;5038783;28;20111;-83
2022/05/01 10:04:56;;;;;;;5.35;3.58;;;14.60;99.90;;;;;;5039381;28;20034;-84
2022/05/01 10:07:24;;;;;;;6.03;3.90;;;14.80;99.90;;;;;;5005761;28;20045;-86
2022/05/01 10:09:52;;;;;;;4.53;3.45;;;14.70;99.90;;;;;;5003753;28;20512;-83
2022/05/01 10:12:19;;;;;;;4.72;3.20;;;14.80;99.90;;;;;;5019421;28;20511;-86
2022/05/01 10:14:45;;;;;;;5.13;3.22;;;15.00;99.90;;;;;;5020965;28;20045;-83
2022/05/01 10:17:10;;;;;;;5.22;2.88;;;14.80;99.90;;;;;;5005251;28;20508;-84
2022/05/01 10:19:36;;;;;;;5.07;3.00;;;14.70;99.90;;;;;;5019783;28;20049;-84
2022/05/01 10:22:03;;;;;;;5.95;3.22;;;14.50;99.90;;;;;;5091412;23;20058;-86
2022/05/01 10:24:29;;;;;;;4.00;2.80;;;14.40;99.90;;;;;;5115700;27;20035;-83
2022/05/01 10:27:15;;;;;;;5.22;3.05;;;14.40;99.90;;;;;;5080601;22;20525;-86
2022/05/01 10:33:07;;;;;;;5.85;3.15;;;14.70;99.90;;;;;;5062022;28;20561;-85
2022/05/01 10:36:04;;;;;;;6.15;3.08;;;14.70;99.90;;;;;;5044235;28;20499;-84
2022/05/01 10:39:09;;;;;;;5.50;3.88;;;14.80;99.90;;;;;;5044061;28;20503;-83
2022/05/01 10:41:39;;;;;;;5.82;3.80;;;14.70;99.90;;;;;;5051169;22;20135;-83
2022/05/01 10:44:05;;;;;;;5.63;3.97;;;14.90;99.90;;;;;;5059632;28;20073;-84
2022/05/01 10:46:32;;;;;;;7.05;4.10;;;15.10;99.90;;;;;;5075828;28;20049;-83
2022/05/01 10:49:03;;;;;;;7.82;4.47;;;15.20;99.90;;;;;;5059304;28;20052;-84
2022/05/01 10:51:34;;;;;;;6.30;4.22;;;15.40;99.90;;;;;;5077442;28;20133;-83
2022/05/01 10:54:14;;;;;;;5.72;3.97;;;15.50;99.90;;;;;;5092372;22;20398;-83
2022/05/01 10:56:42;;;;;;;5.45;3.40;;;15.60;99.90;;;;;;5079938;28;20043;-83
2022/05/01 10:59:30;;;;;;;5.22;3.25;;;16.00;99.90;;;;;;5080508;28;20081;-83
2022/05/01 11:02:03;;;;;;;3.90;2.80;;;16.30;99.90;;;;;;5095989;28;20568;-84
2022/05/01 11:04:41;;;;;;;5.68;3.20;;;16.50;99.90;;;;;;5080216;28;20036;-84
2022/05/01 11:07:10;;;;;;;5.20;3.15;;;16.50;99.90;;;;;;5095818;28;20050;-83
2022/05/01 11:09:37;;;;;;;7.15;4.05;;;16.90;99.90;;;;;;5079333;28;20047;-83
2022/05/01 11:12:06;;;;;;;6.80;4.05;;;16.70;99.90;;;;;;5078092;28;20036;-84
2022/05/01 11:14:57;;;;;;;6.32;3.72;;;16.50;99.90;;;;;;5095679;28;20044;-83
2022/05/01 11:17:29;;;;;;;5.07;3.80;;;16.20;99.90;;;;;;5097087;28;20048;-83
2022/05/01 11:20:23;;;;;;;5.97;4.00;;;16.00;99.90;;;;;;5075367;22;20056;-83
2022/05/01 11:22:49;;;;;;;6.43;4.00;;;15.50;99.90;;;;;;5038631;28;20553;-84
2022/05/01 11:25:18;;;;;;;7.10;4.07;;;15.30;99.90;;;;;;5022129;28;20041;-83
2022/05/01 11:27:51;;;;;;;6.60;3.97;;;15.40;99.90;;;;;;5038733;28;20135;-83
2022/05/01 11:30:33;;;;;;;4.75;3.22;;;14.90;99.90;;;;;;5039419;28;20381;-83
2022/05/01 11:33:10;;;;;;;4.53;2.85;;;15.00;99.90;;;;;;5038713;28;20041;-83
2022/05/01 11:35:58;;;;;;;4.50;3.05;;;14.40;99.90;;;;;;5023558;28;20049;-83
2022/05/01 11:38:33;;;;;;;9.60;4.20;;;14.20;99.90;;;;;;5023741;28;20484;-85
2022/05/01 11:41:02;;;;;;;7.32;3.85;;;14.00;99.90;;;;;;5059429;22;20052;-83
2022/05/01 11:43:29;;;;;;;5.38;4.10;;;14.10;99.90;;;;;;5053209;22;21404;-83
2022/05/01 11:46:01;;;;;;;6.50;3.58;;;14.10;99.90;;;;;;5086083;22;20374;-84
2022/05/01 11:48:27;;;;;;;4.90;2.90;;;14.10;99.90;;;;;;5063712;28;20048;-85
2022/05/01 11:50:54;;;;;;;6.35;2.80;;;14.00;99.90;;;;;;5097319;28;20048;-85
2022/05/01 11:53:23;;;;;;;5.00;2.53;;;14.20;99.90;;;;;;5078063;28;20157;-84
2022/05/01 12:04:34;;;;;;;4.13;2.60;;;15.80;99.90;;;;;;5094262;28;20044;-84
2022/05/01 12:07:17;;;;;;;6.10;2.55;;;15.90;99.90;;;;;;5094569;28;20043;-85
2022/05/01 12:09:46;;;;;;;5.47;2.67;;;15.90;99.90;;;;;;5096638;28;20063;-84
2022/05/01 12:12:17;;;;;;;3.75;2.50;;;15.90;99.90;;;;;;5076301;28;20080;-84
2022/05/01 12:14:44;;;;;;;5.60;2.50;;;15.70;99.90;;;;;;5076374;28;20044;-85
2022/05/01 12:17:14;;;;;;;5.03;2.30;;;15.70;99.90;;;;;;5064862;28;20059;-84
2022/05/01 12:19:46;;;;;;;4.47;2.15;;;16.10;99.90;;;;;;5062857;28;20037;-83
2022/05/01 12:22:14;;;;;;;4.32;2.15;;;16.60;98.40;;;;;;5076993;28;20044;-83
2022/05/01 12:24:43;;;;;;;6.40;2.20;;;17.00;98.00;;;;;;5061797;28;20073;-83
2022/05/01 12:27:10;;;;;;;3.75;2.25;;;17.30;97.80;;;;;;5061675;28;20495;-84
2022/05/01 12:29:38;;;;;;;5.85;2.53;;;17.50;97.70;;;;;;5076501;28;20036;-84
2022/05/01 12:32:08;;;;;;;4.43;2.58;;;18.00;95.70;;;;;;5059987;28;20055;-85
2022/05/01 12:34:49;;;;;;;5.00;2.10;;;18.20;94.40;;;;;;5060721;28;20051;-84
2022/05/01 12:37:20;;;;;;;3.88;2.20;;;18.20;93.10;;;;;;5061598;28;20044;-83
2022/05/01 12:40:03;;;;;;;4.03;2.20;;;18.60;93.30;;;;;;5079408;28;20048;-83
2022/05/01 12:45:22;;;;;;;4.15;2.10;;;18.50;93.00;;;;;;5081352;28;20044;-86
2022/05/01 12:47:52;;;;;;;4.40;2.10;;;18.80;92.50;;;;;;5077675;28;20052;-83
2022/05/01 12:50:18;;;;;;;5.05;2.47;;;18.90;92.00;;;;;;5082927;22;20072;-84
2022/05/01 12:52:47;;;;;;;4.38;2.35;;;19.10;90.80;;;;;;5092049;22;20086;-84
2022/05/01 12:55:31;;;;;;;3.83;2.50;;;19.10;90.10;;;;;;5089659;22;20135;-85
2022/05/01 12:58:06;;;;;;;3.95;2.20;;;19.30;85.80;;;;;;5096986;22;20075;-83
2022/05/01 13:00:45;;;;;;;;;;;19.40;78.40;;;;;;5083112;22;20051;-83
2022/05/01 13:03:30;;;;;;;3.22;2.15;;;18.60;77.30;;;;;;5090985;22;19927;-83
2022/05/01 13:06:13;;;;;;;3.65;2.40;;;18.20;79.50;;;;;;5104552;22;20090;-84
2022/05/01 13:08:44;;;;;;;3.78;2.25;;;17.80;76.70;;;;;;5078256;28;20048;-86
2022/05/01 13:11:14;;;;;;;4.20;2.30;;;17.50;76.60;;;;;;5081405;22;20040;-83
2022/05/01 13:13:47;;;;;;;5.07;2.80;;;17.40;82.20;;;;;;5069491;22;20056;-83
2022/05/01 13:16:14;;;;;;;4.20;2.42;;;17.30;83.30;;;;;;5089078;22;20121;-87
2022/05/01 13:18:40;;;;;;;4.85;2.78;;;17.20;84.60;;;;;;5081682;22;20056;-84
2022/05/01 13:21:06;;;;;;;3.55;2.40;;;16.90;85.30;;;;;;5075019;28;20041;-83
2022/05/01 13:23:31;;;;;;;4.68;2.60;;;16.70;85.10;;;;;;5089634;28;20055;-84
2022/05/01 13:25:58;;;;;;;4.00;2.50;;;16.50;86.60;;;;;;5096137;28;20048;-83
2022/05/01 13:28:23;;;;;;;4.03;2.60;;;16.60;85.90;;;;;;5094968;28;20044;-84